Terminal Aerodrome Forecast
Issued by NWS Wichita, KS

Home | Current Version | Previous Version | Text Only | Print | Product List | Glossary On
Versions: 1 2 3 4 5 6 7 8 9 10 11 12 13 14
224
FTUS43 KICT 171130
TAFICT
TAF
KICT 171130Z 1712/1812 18009KT P6SM SCT009 BKN015
      TEMPO 1712/1714 BKN009
     FM171600 21007KT P6SM SCT015 BKN025
     FM180000 22004KT P6SM SCT070=

USA.gov is the U.S. government's official web portal to all federal, state and local government web resources and services.